sensor_id;sensor_type;location;lat;lon;timestamp;P1;durP1;ratioP1;P2;durP2;ratioP2
61840;SDS011;47773;53.174;6.614;2022-09-29T00:01:29;18.33;;;9.32;;
61840;SDS011;47773;53.174;6.614;2022-09-29T00:03:55;17.02;;;9.05;;
61840;SDS011;47773;53.174;6.614;2022-09-29T00:06:21;19.10;;;9.30;;
61840;SDS011;47773;53.174;6.614;2022-09-29T00:08:47;16.73;;;8.45;;
61840;SDS011;47773;53.174;6.614;2022-09-29T00:11:14;14.60;;;8.80;;
61840;SDS011;47773;53.174;6.614;2022-09-29T00:13:41;18.00;;;7.95;;
61840;SDS011;47773;53.174;6.614;2022-09-29T00:16:07;14.88;;;8.48;;
61840;SDS011;47773;53.174;6.614;2022-09-29T00:18:33;12.00;;;7.50;;
61840;SDS011;47773;53.174;6.614;2022-09-29T00:21:04;13.57;;;7.43;;
61840;SDS011;47773;53.174;6.614;2022-09-29T00:23:31;13.48;;;7.22;;
61840;SDS011;47773;53.174;6.614;2022-09-29T00:26:19;17.70;;;7.25;;
61840;SDS011;47773;53.174;6.614;2022-09-29T00:28:49;16.27;;;7.70;;
61840;SDS011;47773;53.174;6.614;2022-09-29T00:31:17;12.80;;;6.93;;
61840;SDS011;47773;53.174;6.614;2022-09-29T00:33:43;13.48;;;6.50;;
61840;SDS011;47773;53.174;6.614;2022-09-29T00:36:10;14.50;;;7.43;;
61840;SDS011;47773;53.174;6.614;2022-09-29T00:38:37;12.02;;;7.20;;
61840;SDS011;47773;53.174;6.614;2022-09-29T00:41:03;14.32;;;7.03;;
61840;SDS011;47773;53.174;6.614;2022-09-29T00:43:47;13.55;;;7.25;;
61840;SDS011;47773;53.174;6.614;2022-09-29T00:46:16;14.50;;;6.68;;
61840;SDS011;47773;53.174;6.614;2022-09-29T00:48:44;11.68;;;7.55;;
61840;SDS011;47773;53.174;6.614;2022-09-29T00:51:11;13.30;;;7.50;;
61840;SDS011;47773;53.174;6.614;2022-09-29T00:53:37;15.38;;;7.13;;
61840;SDS011;47773;53.174;6.614;2022-09-29T00:56:05;12.20;;;6.80;;
61840;SDS011;47773;53.174;6.614;2022-09-29T00:58:39;10.35;;;6.53;;
61840;SDS011;47773;53.174;6.614;2022-09-29T01:01:27;16.55;;;6.78;;
61840;SDS011;47773;53.174;6.614;2022-09-29T01:03:55;14.82;;;6.82;;
61840;SDS011;47773;53.174;6.614;2022-09-29T01:06:38;12.27;;;6.65;;
61840;SDS011;47773;53.174;6.614;2022-09-29T01:09:07;11.52;;;6.38;;
61840;SDS011;47773;53.174;6.614;2022-09-29T01:11:33;12.77;;;6.75;;
61840;SDS011;47773;53.174;6.614;2022-09-29T01:14:00;11.85;;;6.35;;
61840;SDS011;47773;53.174;6.614;2022-09-29T01:16:32;10.77;;;6.60;;
61840;SDS011;47773;53.174;6.614;2022-09-29T01:18:59;9.55;;;6.28;;
61840;SDS011;47773;53.174;6.614;2022-09-29T01:21:40;17.23;;;7.00;;
61840;SDS011;47773;53.174;6.614;2022-09-29T01:40:08;12.27;;;7.20;;
61840;SDS011;47773;53.174;6.614;2022-09-29T01:42:38;12.93;;;6.72;;
61840;SDS011;47773;53.174;6.614;2022-09-29T01:45:16;13.82;;;7.43;;
61840;SDS011;47773;53.174;6.614;2022-09-29T01:47:51;10.18;;;6.57;;
61840;SDS011;47773;53.174;6.614;2022-09-29T01:52:53;11.73;;;6.13;;
61840;SDS011;47773;53.174;6.614;2022-09-29T01:55:22;10.82;;;6.65;;
61840;SDS011;47773;53.174;6.614;2022-09-29T01:57:50;10.23;;;6.43;;
61840;SDS011;47773;53.174;6.614;2022-09-29T02:00:18;12.93;;;7.07;;
61840;SDS011;47773;53.174;6.614;2022-09-29T02:02:55;15.63;;;6.97;;
61840;SDS011;47773;53.174;6.614;2022-09-29T02:05:30;11.18;;;7.28;;
61840;SDS011;47773;53.174;6.614;2022-09-29T02:08:03;12.07;;;7.28;;
61840;SDS011;47773;53.174;6.614;2022-09-29T02:10:33;17.95;;;8.50;;
61840;SDS011;47773;53.174;6.614;2022-09-29T02:13:00;13.82;;;8.10;;
61840;SDS011;47773;53.174;6.614;2022-09-29T02:15:28;13.32;;;7.63;;
61840;SDS011;47773;53.174;6.614;2022-09-29T02:17:56;12.45;;;7.13;;
61840;SDS011;47773;53.174;6.614;2022-09-29T02:20:25;12.45;;;7.22;;
61840;SDS011;47773;53.174;6.614;2022-09-29T02:22:51;14.00;;;8.35;;
61840;SDS011;47773;53.174;6.614;2022-09-29T02:25:18;14.40;;;8.10;;
61840;SDS011;47773;53.174;6.614;2022-09-29T02:27:44;13.55;;;8.20;;
61840;SDS011;47773;53.174;6.614;2022-09-29T02:30:12;13.27;;;8.75;;
61840;SDS011;47773;53.174;6.614;2022-09-29T02:32:38;13.70;;;7.75;;
61840;SDS011;47773;53.174;6.614;2022-09-29T02:35:06;12.25;;;7.57;;
61840;SDS011;47773;53.174;6.614;2022-09-29T02:37:42;12.20;;;7.68;;
61840;SDS011;47773;53.174;6.614;2022-09-29T02:40:17;11.02;;;7.30;;
61840;SDS011;47773;53.174;6.614;2022-09-29T02:45:45;13.48;;;7.78;;
61840;SDS011;47773;53.174;6.614;2022-09-29T02:51:00;13.32;;;8.15;;
61840;SDS011;47773;53.174;6.614;2022-09-29T02:56:16;12.93;;;7.70;;
61840;SDS011;47773;53.174;6.614;2022-09-29T03:01:23;11.55;;;7.68;;
61840;SDS011;47773;53.174;6.614;2022-09-29T03:03:49;12.65;;;7.80;;
61840;SDS011;47773;53.174;6.614;2022-09-29T03:06:15;13.27;;;7.72;;
61840;SDS011;47773;53.174;6.614;2022-09-29T03:08:43;19.60;;;8.38;;
61840;SDS011;47773;53.174;6.614;2022-09-29T03:11:10;16.40;;;8.65;;
61840;SDS011;47773;53.174;6.614;2022-09-29T03:13:36;15.32;;;8.52;;
61840;SDS011;47773;53.174;6.614;2022-09-29T03:16:02;15.82;;;8.52;;
61840;SDS011;47773;53.174;6.614;2022-09-29T03:18:28;13.75;;;8.20;;
61840;SDS011;47773;53.174;6.614;2022-09-29T03:20:54;13.32;;;8.60;;
61840;SDS011;47773;53.174;6.614;2022-09-29T03:23:20;13.70;;;8.43;;
61840;SDS011;47773;53.174;6.614;2022-09-29T03:25:46;14.50;;;8.73;;
61840;SDS011;47773;53.174;6.614;2022-09-29T03:28:13;13.15;;;8.60;;
61840;SDS011;47773;53.174;6.614;2022-09-29T03:30:40;15.07;;;9.05;;
61840;SDS011;47773;53.174;6.614;2022-09-29T03:33:06;13.20;;;8.40;;
61840;SDS011;47773;53.174;6.614;2022-09-29T03:35:32;13.32;;;8.77;;
61840;SDS011;47773;53.174;6.614;2022-09-29T03:37:59;13.07;;;8.10;;
61840;SDS011;47773;53.174;6.614;2022-09-29T03:40:25;15.43;;;9.00;;
61840;SDS011;47773;53.174;6.614;2022-09-29T03:42:51;14.73;;;9.48;;
61840;SDS011;47773;53.174;6.614;2022-09-29T03:45:18;15.00;;;8.00;;
61840;SDS011;47773;53.174;6.614;2022-09-29T03:47:44;13.85;;;8.52;;
61840;SDS011;47773;53.174;6.614;2022-09-29T03:50:10;13.25;;;8.63;;
61840;SDS011;47773;53.174;6.614;2022-09-29T03:52:36;14.50;;;8.13;;
61840;SDS011;47773;53.174;6.614;2022-09-29T03:55:02;13.60;;;8.38;;
61840;SDS011;47773;53.174;6.614;2022-09-29T03:57:29;11.77;;;7.97;;
61840;SDS011;47773;53.174;6.614;2022-09-29T03:59:55;16.15;;;9.00;;
61840;SDS011;47773;53.174;6.614;2022-09-29T04:02:21;13.25;;;8.77;;
61840;SDS011;47773;53.174;6.614;2022-09-29T04:04:47;21.33;;;8.98;;
61840;SDS011;47773;53.174;6.614;2022-09-29T04:07:14;14.30;;;8.63;;
61840;SDS011;47773;53.174;6.614;2022-09-29T04:09:40;17.48;;;9.10;;
61840;SDS011;47773;53.174;6.614;2022-09-29T04:12:06;14.13;;;8.25;;
61840;SDS011;47773;53.174;6.614;2022-09-29T04:14:32;22.13;;;9.38;;
61840;SDS011;47773;53.174;6.614;2022-09-29T04:16:58;14.75;;;8.63;;
61840;SDS011;47773;53.174;6.614;2022-09-29T04:19:25;16.13;;;8.27;;
61840;SDS011;47773;53.174;6.614;2022-09-29T04:21:51;16.83;;;9.82;;
61840;SDS011;47773;53.174;6.614;2022-09-29T04:24:17;13.65;;;8.75;;
61840;SDS011;47773;53.174;6.614;2022-09-29T04:26:43;14.98;;;9.00;;
61840;SDS011;47773;53.174;6.614;2022-09-29T04:29:09;14.70;;;8.52;;
61840;SDS011;47773;53.174;6.614;2022-09-29T04:31:35;19.95;;;9.52;;
61840;SDS011;47773;53.174;6.614;2022-09-29T04:34:01;12.32;;;7.78;;
61840;SDS011;47773;53.174;6.614;2022-09-29T04:36:27;16.90;;;9.35;;
61840;SDS011;47773;53.174;6.614;2022-09-29T04:38:53;12.85;;;8.77;;
61840;SDS011;47773;53.174;6.614;2022-09-29T04:41:20;16.63;;;9.30;;
61840;SDS011;47773;53.174;6.614;2022-09-29T04:43:46;15.80;;;9.63;;
61840;SDS011;47773;53.174;6.614;2022-09-29T04:46:12;15.98;;;9.40;;
61840;SDS011;47773;53.174;6.614;2022-09-29T04:48:39;16.52;;;9.10;;
61840;SDS011;47773;53.174;6.614;2022-09-29T04:51:05;18.50;;;9.40;;
61840;SDS011;47773;53.174;6.614;2022-09-29T04:53:32;18.63;;;8.80;;
61840;SDS011;47773;53.174;6.614;2022-09-29T04:55:58;14.57;;;9.43;;
61840;SDS011;47773;53.174;6.614;2022-09-29T04:58:25;13.93;;;9.18;;
61840;SDS011;47773;53.174;6.614;2022-09-29T05:00:51;13.27;;;8.95;;
61840;SDS011;47773;53.174;6.614;2022-09-29T05:03:17;17.05;;;10.15;;
61840;SDS011;47773;53.174;6.614;2022-09-29T05:05:43;16.17;;;9.80;;
61840;SDS011;47773;53.174;6.614;2022-09-29T05:08:09;14.85;;;9.45;;
61840;SDS011;47773;53.174;6.614;2022-09-29T05:10:35;15.98;;;9.43;;
61840;SDS011;47773;53.174;6.614;2022-09-29T05:13:01;16.20;;;10.25;;
61840;SDS011;47773;53.174;6.614;2022-09-29T05:15:27;28.45;;;16.33;;
61840;SDS011;47773;53.174;6.614;2022-09-29T05:17:53;29.50;;;18.55;;
61840;SDS011;47773;53.174;6.614;2022-09-29T05:20:19;23.38;;;15.05;;
61840;SDS011;47773;53.174;6.614;2022-09-29T05:22:45;22.92;;;15.85;;
61840;SDS011;47773;53.174;6.614;2022-09-29T05:25:11;21.73;;;14.70;;
61840;SDS011;47773;53.174;6.614;2022-09-29T05:27:38;20.98;;;13.55;;
61840;SDS011;47773;53.174;6.614;2022-09-29T05:30:04;20.92;;;14.05;;
61840;SDS011;47773;53.174;6.614;2022-09-29T05:32:30;25.50;;;16.25;;
61840;SDS011;47773;53.174;6.614;2022-09-29T05:34:56;23.13;;;14.27;;
61840;SDS011;47773;53.174;6.614;2022-09-29T05:37:23;22.15;;;12.95;;
61840;SDS011;47773;53.174;6.614;2022-09-29T05:39:49;23.50;;;13.80;;
61840;SDS011;47773;53.174;6.614;2022-09-29T05:42:15;24.35;;;15.60;;
61840;SDS011;47773;53.174;6.614;2022-09-29T05:44:41;24.25;;;13.43;;
61840;SDS011;47773;53.174;6.614;2022-09-29T05:47:07;21.90;;;13.60;;
61840;SDS011;47773;53.174;6.614;2022-09-29T05:49:34;23.65;;;15.10;;
61840;SDS011;47773;53.174;6.614;2022-09-29T05:52:00;23.05;;;14.32;;
61840;SDS011;47773;53.174;6.614;2022-09-29T05:54:26;24.50;;;13.43;;
61840;SDS011;47773;53.174;6.614;2022-09-29T05:56:53;23.38;;;13.45;;
61840;SDS011;47773;53.174;6.614;2022-09-29T05:59:20;18.38;;;12.63;;
61840;SDS011;47773;53.174;6.614;2022-09-29T06:01:46;19.60;;;12.80;;
61840;SDS011;47773;53.174;6.614;2022-09-29T06:04:12;20.77;;;12.02;;
61840;SDS011;47773;53.174;6.614;2022-09-29T06:06:38;19.48;;;12.65;;
61840;SDS011;47773;53.174;6.614;2022-09-29T06:09:04;17.55;;;11.75;;
61840;SDS011;47773;53.174;6.614;2022-09-29T06:11:31;17.77;;;10.90;;
61840;SDS011;47773;53.174;6.614;2022-09-29T06:13:57;19.90;;;12.25;;
61840;SDS011;47773;53.174;6.614;2022-09-29T06:16:24;22.83;;;12.45;;
61840;SDS011;47773;53.174;6.614;2022-09-29T06:18:50;24.17;;;15.23;;
61840;SDS011;47773;53.174;6.614;2022-09-29T06:21:21;26.83;;;17.98;;
61840;SDS011;47773;53.174;6.614;2022-09-29T06:23:50;20.75;;;13.77;;
61840;SDS011;47773;53.174;6.614;2022-09-29T06:26:18;21.63;;;12.77;;
61840;SDS011;47773;53.174;6.614;2022-09-29T06:28:44;21.50;;;12.30;;
61840;SDS011;47773;53.174;6.614;2022-09-29T06:31:11;21.23;;;12.60;;
61840;SDS011;47773;53.174;6.614;2022-09-29T06:33:37;18.05;;;12.13;;
61840;SDS011;47773;53.174;6.614;2022-09-29T06:36:46;20.63;;;13.07;;
61840;SDS011;47773;53.174;6.614;2022-09-29T06:39:11;26.70;;;17.17;;
61840;SDS011;47773;53.174;6.614;2022-09-29T06:41:38;25.13;;;18.27;;
61840;SDS011;47773;53.174;6.614;2022-09-29T06:44:04;26.88;;;18.58;;
61840;SDS011;47773;53.174;6.614;2022-09-29T06:46:30;24.65;;;17.45;;
61840;SDS011;47773;53.174;6.614;2022-09-29T06:48:56;30.05;;;20.83;;
61840;SDS011;47773;53.174;6.614;2022-09-29T06:51:23;35.50;;;22.35;;
61840;SDS011;47773;53.174;6.614;2022-09-29T06:53:49;28.40;;;17.92;;
61840;SDS011;47773;53.174;6.614;2022-09-29T06:56:16;31.38;;;21.08;;
61840;SDS011;47773;53.174;6.614;2022-09-29T06:58:43;26.27;;;15.45;;
61840;SDS011;47773;53.174;6.614;2022-09-29T07:01:10;28.27;;;14.38;;
61840;SDS011;47773;53.174;6.614;2022-09-29T07:03:36;20.67;;;13.20;;
61840;SDS011;47773;53.174;6.614;2022-09-29T07:06:03;21.45;;;13.30;;
61840;SDS011;47773;53.174;6.614;2022-09-29T07:08:30;22.40;;;14.25;;
61840;SDS011;47773;53.174;6.614;2022-09-29T07:10:56;23.20;;;15.35;;
61840;SDS011;47773;53.174;6.614;2022-09-29T07:13:23;25.35;;;13.88;;
61840;SDS011;47773;53.174;6.614;2022-09-29T07:15:49;23.20;;;14.30;;
61840;SDS011;47773;53.174;6.614;2022-09-29T07:18:15;21.95;;;14.50;;
61840;SDS011;47773;53.174;6.614;2022-09-29T07:20:41;23.65;;;14.50;;
61840;SDS011;47773;53.174;6.614;2022-09-29T07:23:07;24.02;;;14.40;;
61840;SDS011;47773;53.174;6.614;2022-09-29T07:25:33;25.63;;;15.48;;
61840;SDS011;47773;53.174;6.614;2022-09-29T07:28:00;26.65;;;16.85;;
61840;SDS011;47773;53.174;6.614;2022-09-29T07:30:26;28.58;;;17.27;;
61840;SDS011;47773;53.174;6.614;2022-09-29T07:32:55;25.90;;;15.93;;
61840;SDS011;47773;53.174;6.614;2022-09-29T07:35:21;28.85;;;16.33;;
61840;SDS011;47773;53.174;6.614;2022-09-29T07:37:53;30.70;;;15.93;;
61840;SDS011;47773;53.174;6.614;2022-09-29T07:40:20;28.92;;;17.08;;
61840;SDS011;47773;53.174;6.614;2022-09-29T07:42:46;28.30;;;18.05;;
61840;SDS011;47773;53.174;6.614;2022-09-29T07:45:14;31.70;;;19.63;;
61840;SDS011;47773;53.174;6.614;2022-09-29T07:47:40;29.55;;;17.95;;
61840;SDS011;47773;53.174;6.614;2022-09-29T07:50:06;22.83;;;15.02;;
61840;SDS011;47773;53.174;6.614;2022-09-29T07:52:33;32.20;;;17.33;;
61840;SDS011;47773;53.174;6.614;2022-09-29T07:54:59;31.77;;;18.58;;
61840;SDS011;47773;53.174;6.614;2022-09-29T07:57:25;28.35;;;17.42;;
61840;SDS011;47773;53.174;6.614;2022-09-29T07:59:51;26.17;;;16.48;;
61840;SDS011;47773;53.174;6.614;2022-09-29T08:02:18;24.45;;;15.15;;
61840;SDS011;47773;53.174;6.614;2022-09-29T08:04:44;28.70;;;16.65;;
61840;SDS011;47773;53.174;6.614;2022-09-29T08:07:11;28.30;;;17.05;;
61840;SDS011;47773;53.174;6.614;2022-09-29T08:09:37;30.92;;;16.02;;
61840;SDS011;47773;53.174;6.614;2022-09-29T08:12:03;24.63;;;15.20;;
61840;SDS011;47773;53.174;6.614;2022-09-29T08:14:29;26.35;;;16.05;;
61840;SDS011;47773;53.174;6.614;2022-09-29T08:16:55;29.83;;;16.00;;
61840;SDS011;47773;53.174;6.614;2022-09-29T08:19:21;31.02;;;16.23;;
61840;SDS011;47773;53.174;6.614;2022-09-29T08:21:47;28.65;;;15.85;;
61840;SDS011;47773;53.174;6.614;2022-09-29T08:24:14;28.38;;;16.58;;
61840;SDS011;47773;53.174;6.614;2022-09-29T08:26:41;37.67;;;17.48;;
61840;SDS011;47773;53.174;6.614;2022-09-29T08:29:08;27.15;;;16.00;;
61840;SDS011;47773;53.174;6.614;2022-09-29T08:31:34;30.05;;;16.52;;
61840;SDS011;47773;53.174;6.614;2022-09-29T08:34:01;28.15;;;17.27;;
61840;SDS011;47773;53.174;6.614;2022-09-29T08:36:27;26.02;;;15.85;;
61840;SDS011;47773;53.174;6.614;2022-09-29T08:38:53;27.02;;;16.73;;
61840;SDS011;47773;53.174;6.614;2022-09-29T08:41:36;27.75;;;16.67;;
61840;SDS011;47773;53.174;6.614;2022-09-29T08:44:14;24.40;;;15.13;;
61840;SDS011;47773;53.174;6.614;2022-09-29T08:46:44;29.58;;;16.15;;
61840;SDS011;47773;53.174;6.614;2022-09-29T08:49:25;24.65;;;14.98;;
61840;SDS011;47773;53.174;6.614;2022-09-29T08:51:54;23.98;;;15.13;;
61840;SDS011;47773;53.174;6.614;2022-09-29T08:54:23;25.63;;;15.00;;
61840;SDS011;47773;53.174;6.614;2022-09-29T08:56:50;28.73;;;14.90;;
61840;SDS011;47773;53.174;6.614;2022-09-29T08:59:16;22.45;;;13.82;;
61840;SDS011;47773;53.174;6.614;2022-09-29T09:07:29;19.33;;;11.48;;
61840;SDS011;47773;53.174;6.614;2022-09-29T09:27:58;12.77;;;7.80;;
61840;SDS011;47773;53.174;6.614;2022-09-29T09:30:30;15.80;;;8.02;;
61840;SDS011;47773;53.174;6.614;2022-09-29T09:33:00;16.00;;;7.95;;
61840;SDS011;47773;53.174;6.614;2022-09-29T09:35:36;12.15;;;7.82;;
61840;SDS011;47773;53.174;6.614;2022-09-29T09:38:12;14.60;;;7.50;;
61840;SDS011;47773;53.174;6.614;2022-09-29T09:40:43;12.65;;;6.82;;
61840;SDS011;47773;53.174;6.614;2022-09-29T09:43:33;11.13;;;6.90;;
61840;SDS011;47773;53.174;6.614;2022-09-29T09:48:48;10.88;;;6.47;;
61840;SDS011;47773;53.174;6.614;2022-09-29T09:51:23;9.13;;;5.97;;
61840;SDS011;47773;53.174;6.614;2022-09-29T09:53:53;11.55;;;4.95;;
61840;SDS011;47773;53.174;6.614;2022-09-29T09:56:43;6.88;;;4.18;;
61840;SDS011;47773;53.174;6.614;2022-09-29T10:02:03;7.00;;;3.67;;
61840;SDS011;47773;53.174;6.614;2022-09-29T10:04:29;7.30;;;3.22;;
61840;SDS011;47773;53.174;6.614;2022-09-29T10:06:57;4.57;;;2.70;;
61840;SDS011;47773;53.174;6.614;2022-09-29T10:09:23;6.38;;;3.33;;
61840;SDS011;47773;53.174;6.614;2022-09-29T10:11:49;5.00;;;2.75;;
61840;SDS011;47773;53.174;6.614;2022-09-29T10:14:22;6.22;;;2.70;;
61840;SDS011;47773;53.174;6.614;2022-09-29T10:16:58;7.80;;;2.60;;
61840;SDS011;47773;53.174;6.614;2022-09-29T10:22:27;7.28;;;1.77;;
61840;SDS011;47773;53.174;6.614;2022-09-29T10:27:39;3.60;;;2.20;;
61840;SDS011;47773;53.174;6.614;2022-09-29T10:30:24;3.33;;;1.90;;
61840;SDS011;47773;53.174;6.614;2022-09-29T10:32:57;3.58;;;2.03;;
61840;SDS011;47773;53.174;6.614;2022-09-29T10:35:27;3.38;;;1.80;;
61840;SDS011;47773;53.174;6.614;2022-09-29T10:38:27;3.33;;;2.00;;
61840;SDS011;47773;53.174;6.614;2022-09-29T10:43:23;3.63;;;2.20;;
61840;SDS011;47773;53.174;6.614;2022-09-29T10:45:49;2.88;;;1.60;;
61840;SDS011;47773;53.174;6.614;2022-09-29T10:48:17;6.22;;;2.60;;
61840;SDS011;47773;53.174;6.614;2022-09-29T10:50:53;7.97;;;2.17;;
61840;SDS011;47773;53.174;6.614;2022-09-29T10:55:49;3.90;;;1.73;;
61840;SDS011;47773;53.174;6.614;2022-09-29T10:58:39;4.38;;;1.95;;
61840;SDS011;47773;53.174;6.614;2022-09-29T11:01:09;2.85;;;1.80;;
61840;SDS011;47773;53.174;6.614;2022-09-29T11:03:39;3.47;;;1.80;;
61840;SDS011;47773;53.174;6.614;2022-09-29T11:06:14;4.97;;;1.75;;
61840;SDS011;47773;53.174;6.614;2022-09-29T11:11:51;4.68;;;2.00;;
61840;SDS011;47773;53.174;6.614;2022-09-29T11:14:25;2.78;;;1.52;;
61840;SDS011;47773;53.174;6.614;2022-09-29T11:16:52;2.70;;;1.42;;
61840;SDS011;47773;53.174;6.614;2022-09-29T11:19:19;2.95;;;1.58;;
61840;SDS011;47773;53.174;6.614;2022-09-29T11:22:10;3.97;;;1.90;;
61840;SDS011;47773;53.174;6.614;2022-09-29T11:30:42;9.40;;;1.92;;
61840;SDS011;47773;53.174;6.614;2022-09-29T11:33:26;2.40;;;1.38;;
61840;SDS011;47773;53.174;6.614;2022-09-29T11:36:05;2.47;;;1.08;;
61840;SDS011;47773;53.174;6.614;2022-09-29T11:45:04;2.00;;;0.80;;
61840;SDS011;47773;53.174;6.614;2022-09-29T11:52:54;3.72;;;1.10;;
61840;SDS011;47773;53.174;6.614;2022-09-29T12:03:26;2.70;;;0.50;;
61840;SDS011;47773;53.174;6.614;2022-09-29T12:08:49;2.88;;;1.00;;
61840;SDS011;47773;53.174;6.614;2022-09-29T12:14:15;1.60;;;0.88;;
61840;SDS011;47773;53.174;6.614;2022-09-29T12:16:50;4.07;;;0.75;;
61840;SDS011;47773;53.174;6.614;2022-09-29T12:19:22;2.80;;;0.90;;
61840;SDS011;47773;53.174;6.614;2022-09-29T12:21:53;2.42;;;1.13;;
61840;SDS011;47773;53.174;6.614;2022-09-29T12:24:32;4.28;;;1.10;;
61840;SDS011;47773;53.174;6.614;2022-09-29T12:27:07;3.38;;;0.80;;
61840;SDS011;47773;53.174;6.614;2022-09-29T12:29:59;2.63;;;1.08;;
61840;SDS011;47773;53.174;6.614;2022-09-29T12:32:38;2.83;;;1.20;;
61840;SDS011;47773;53.174;6.614;2022-09-29T12:35:12;3.25;;;0.90;;
61840;SDS011;47773;53.174;6.614;2022-09-29T12:50:41;1.50;;;0.50;;
61840;SDS011;47773;53.174;6.614;2022-09-29T12:56:08;1.20;;;0.60;;
61840;SDS011;47773;53.174;6.614;2022-09-29T12:58:47;2.80;;;0.60;;
61840;SDS011;47773;53.174;6.614;2022-09-29T13:09:16;4.47;;;0.95;;
61840;SDS011;47773;53.174;6.614;2022-09-29T13:20:13;2.45;;;1.63;;
61840;SDS011;47773;53.174;6.614;2022-09-29T13:28:00;2.75;;;0.77;;
61840;SDS011;47773;53.174;6.614;2022-09-29T13:30:29;2.58;;;0.65;;
61840;SDS011;47773;53.174;6.614;2022-09-29T13:33:00;7.03;;;0.73;;
61840;SDS011;47773;53.174;6.614;2022-09-29T13:35:47;8.55;;;0.70;;
61840;SDS011;47773;53.174;6.614;2022-09-29T13:38:18;2.58;;;0.80;;
61840;SDS011;47773;53.174;6.614;2022-09-29T13:49:02;2.47;;;0.70;;
61840;SDS011;47773;53.174;6.614;2022-09-29T13:51:55;4.25;;;0.90;;
61840;SDS011;47773;53.174;6.614;2022-09-29T13:59:40;5.50;;;1.10;;
61840;SDS011;47773;53.174;6.614;2022-09-29T14:18:44;2.35;;;0.70;;
61840;SDS011;47773;53.174;6.614;2022-09-29T14:24:43;1.52;;;0.60;;
61840;SDS011;47773;53.174;6.614;2022-09-29T14:30:12;2.17;;;0.68;;
61840;SDS011;47773;53.174;6.614;2022-09-29T14:32:51;1.77;;;0.60;;
61840;SDS011;47773;53.174;6.614;2022-09-29T14:35:24;1.20;;;0.50;;
61840;SDS011;47773;53.174;6.614;2022-09-29T14:38:02;0.88;;;0.40;;
61840;SDS011;47773;53.174;6.614;2022-09-29T14:40:33;1.23;;;0.60;;
61840;SDS011;47773;53.174;6.614;2022-09-29T14:45:29;0.45;;;0.35;;
61840;SDS011;47773;53.174;6.614;2022-09-29T14:48:26;3.05;;;0.50;;
61840;SDS011;47773;53.174;6.614;2022-09-29T14:51:22;0.82;;;0.50;;
61840;SDS011;47773;53.174;6.614;2022-09-29T14:54:35;0.55;;;0.30;;
61840;SDS011;47773;53.174;6.614;2022-09-29T15:04:43;1.48;;;0.50;;
61840;SDS011;47773;53.174;6.614;2022-09-29T15:07:12;3.28;;;0.50;;
61840;SDS011;47773;53.174;6.614;2022-09-29T15:09:45;1.75;;;0.30;;
61840;SDS011;47773;53.174;6.614;2022-09-29T15:12:20;1.90;;;0.50;;
61840;SDS011;47773;53.174;6.614;2022-09-29T15:14:50;1.33;;;0.47;;
61840;SDS011;47773;53.174;6.614;2022-09-29T15:19:57;2.67;;;1.23;;
61840;SDS011;47773;53.174;6.614;2022-09-29T15:27:59;12.45;;;2.92;;
61840;SDS011;47773;53.174;6.614;2022-09-29T15:30:42;7.43;;;3.92;;
61840;SDS011;47773;53.174;6.614;2022-09-29T15:35:50;7.57;;;2.92;;
61840;SDS011;47773;53.174;6.614;2022-09-29T15:40:55;6.05;;;2.60;;
61840;SDS011;47773;53.174;6.614;2022-09-29T15:43:27;8.65;;;3.28;;
61840;SDS011;47773;53.174;6.614;2022-09-29T15:45:59;4.78;;;2.42;;
61840;SDS011;47773;53.174;6.614;2022-09-29T15:48:27;8.35;;;2.60;;
61840;SDS011;47773;53.174;6.614;2022-09-29T15:50:54;11.07;;;4.38;;
61840;SDS011;47773;53.174;6.614;2022-09-29T15:53:20;11.55;;;5.00;;
61840;SDS011;47773;53.174;6.614;2022-09-29T15:55:51;6.70;;;4.10;;
61840;SDS011;47773;53.174;6.614;2022-09-29T15:58:41;7.45;;;2.75;;
61840;SDS011;47773;53.174;6.614;2022-09-29T16:01:10;8.80;;;3.67;;
61840;SDS011;47773;53.174;6.614;2022-09-29T16:03:38;10.40;;;3.80;;
61840;SDS011;47773;53.174;6.614;2022-09-29T16:06:29;10.40;;;3.10;;
61840;SDS011;47773;53.174;6.614;2022-09-29T16:09:00;9.60;;;4.15;;
61840;SDS011;47773;53.174;6.614;2022-09-29T16:11:34;8.30;;;3.83;;
61840;SDS011;47773;53.174;6.614;2022-09-29T16:14:09;9.15;;;3.08;;
61840;SDS011;47773;53.174;6.614;2022-09-29T16:16:44;9.10;;;5.10;;
61840;SDS011;47773;53.174;6.614;2022-09-29T16:19:14;16.40;;;9.15;;
61840;SDS011;47773;53.174;6.614;2022-09-29T16:21:48;13.32;;;7.32;;
61840;SDS011;47773;53.174;6.614;2022-09-29T16:24:18;11.55;;;5.50;;
61840;SDS011;47773;53.174;6.614;2022-09-29T16:26:49;10.95;;;4.72;;
61840;SDS011;47773;53.174;6.614;2022-09-29T16:31:52;4.85;;;2.40;;
61840;SDS011;47773;53.174;6.614;2022-09-29T16:34:21;13.15;;;8.93;;
61840;SDS011;47773;53.174;6.614;2022-09-29T16:36:51;16.42;;;11.45;;
61840;SDS011;47773;53.174;6.614;2022-09-29T16:39:29;22.77;;;14.57;;
61840;SDS011;47773;53.174;6.614;2022-09-29T16:41:58;16.92;;;9.80;;
61840;SDS011;47773;53.174;6.614;2022-09-29T16:44:30;14.75;;;9.77;;
61840;SDS011;47773;53.174;6.614;2022-09-29T16:50:22;13.35;;;8.45;;
61840;SDS011;47773;53.174;6.614;2022-09-29T16:52:47;13.77;;;7.45;;
61840;SDS011;47773;53.174;6.614;2022-09-29T17:00:30;21.92;;;10.23;;
61840;SDS011;47773;53.174;6.614;2022-09-29T17:02:56;18.67;;;10.18;;
61840;SDS011;47773;53.174;6.614;2022-09-29T17:05:25;15.07;;;9.50;;
61840;SDS011;47773;53.174;6.614;2022-09-29T17:07:58;14.73;;;8.63;;
61840;SDS011;47773;53.174;6.614;2022-09-29T17:10:24;14.10;;;7.60;;
61840;SDS011;47773;53.174;6.614;2022-09-29T17:12:50;16.13;;;7.53;;
61840;SDS011;47773;53.174;6.614;2022-09-29T17:15:16;10.80;;;5.70;;
61840;SDS011;47773;53.174;6.614;2022-09-29T17:17:46;10.90;;;5.43;;
61840;SDS011;47773;53.174;6.614;2022-09-29T17:20:13;10.30;;;6.47;;
61840;SDS011;47773;53.174;6.614;2022-09-29T17:22:42;11.68;;;6.03;;
61840;SDS011;47773;53.174;6.614;2022-09-29T17:25:09;12.55;;;7.35;;
61840;SDS011;47773;53.174;6.614;2022-09-29T17:27:35;12.93;;;6.82;;
61840;SDS011;47773;53.174;6.614;2022-09-29T17:30:20;12.52;;;8.23;;
61840;SDS011;47773;53.174;6.614;2022-09-29T17:32:49;15.38;;;9.25;;
61840;SDS011;47773;53.174;6.614;2022-09-29T17:35:17;13.05;;;8.23;;
61840;SDS011;47773;53.174;6.614;2022-09-29T17:37:45;13.40;;;7.45;;
61840;SDS011;47773;53.174;6.614;2022-09-29T17:40:24;10.38;;;6.53;;
61840;SDS011;47773;53.174;6.614;2022-09-29T17:43:12;10.48;;;6.07;;
61840;SDS011;47773;53.174;6.614;2022-09-29T17:45:37;9.25;;;5.25;;
61840;SDS011;47773;53.174;6.614;2022-09-29T17:48:06;8.75;;;5.13;;
61840;SDS011;47773;53.174;6.614;2022-09-29T17:50:36;13.93;;;4.85;;
61840;SDS011;47773;53.174;6.614;2022-09-29T17:53:05;10.07;;;5.07;;
61840;SDS011;47773;53.174;6.614;2022-09-29T17:55:31;15.32;;;3.92;;
61840;SDS011;47773;53.174;6.614;2022-09-29T17:57:58;7.03;;;3.30;;
61840;SDS011;47773;53.174;6.614;2022-09-29T18:00:25;7.65;;;3.30;;
61840;SDS011;47773;53.174;6.614;2022-09-29T18:02:57;7.65;;;3.45;;
61840;SDS011;47773;53.174;6.614;2022-09-29T18:05:23;8.55;;;4.03;;
61840;SDS011;47773;53.174;6.614;2022-09-29T18:07:52;8.95;;;5.50;;
61840;SDS011;47773;53.174;6.614;2022-09-29T18:10:21;7.70;;;4.45;;
61840;SDS011;47773;53.174;6.614;2022-09-29T18:12:49;8.45;;;4.60;;
61840;SDS011;47773;53.174;6.614;2022-09-29T18:15:15;8.70;;;4.95;;
61840;SDS011;47773;53.174;6.614;2022-09-29T18:17:41;8.68;;;4.80;;
61840;SDS011;47773;53.174;6.614;2022-09-29T18:20:15;6.93;;;4.00;;
61840;SDS011;47773;53.174;6.614;2022-09-29T18:22:43;5.63;;;3.38;;
61840;SDS011;47773;53.174;6.614;2022-09-29T18:25:10;6.40;;;3.15;;